This demonstration page uses our WeatherBlox Daily Observations layout. Learn more.

Left ArrowRight Arrow

Hourly Observations for November 8, 2020

Temp ( °F °C ) Dew Point ( °F °C ) Humidity (%) Winds ( mph kmh ) Pressure ( in mb ) Visibility ( mi km ) Precip ( " mm )
12:54 am 00:54 Clear 60 15.6 46 7.8 60 60 S 17 28 29.79 1009 10 16.0934 0 0
1:54 am 01:54 Clear 58 14.4 46 7.8 65 65 SSE 14 22 29.8 1009 10 16.0934 0 0
2:54 am 02:54 Clear 58 14.4 47 8.3 67 67 S 15 24 29.8 1009 10 16.0934 0 0
3:54 am 03:54 Clear 57 13.9 48 8.9 72 72 S 15 24 29.8 1009 10 16.0934 0 0
4:54 am 04:54 Clear 57 13.9 48 8.9 72 72 S 17 28 29.81 1009 10 16.0934 0 0
5:54 am 05:54 Clear 57 13.9 49 9.4 74 74 S 20 31 29.8 1009 10 16.0934 0 0
6:54 am 06:54 Clear 57 13.9 50 10 78 78 S 18 30 29.81 1010 10 16.0934 0 0
7:54 am 07:54 Sunny 59 15 53 11.7 81 81 SSE 18 30 29.81 1010 10 16.0934 0 0
8:54 am 08:54 Mostly Sunny 62 16.7 54 12.2 75 75 S 24 39 29.81 1010 10 16.0934 0 0
9:54 am 09:54 Mostly Sunny 66 18.9 54 12.2 65 65 S 29 46 29.78 1009 10 16.0934 0 0
10:54 am 10:54 Mostly Cloudy 69 20.6 54 12.2 59 59 S 30 48 29.79 1009 10 16.0934 0 0
11:54 am 11:54 Mostly Cloudy 71 21.7 54 12.2 55 55 S 32 52 29.77 1008 10 16.0934 0 0
12:54 pm 12:54 Mostly Cloudy 73 22.8 53 11.7 50 50 S 32 52 29.75 1008 10 16.0934 0 0
1:54 pm 13:54 Mostly Sunny 76 24.4 52 11.1 43 43 S 33 54 29.74 1007 10 16.0934 0 0
2:54 pm 14:54 Sunny 75 23.9 52 11.1 45 45 S 25 41 29.73 1007 10 16.0934 0 0
3:54 pm 15:54 Sunny 75 23.9 52 11.1 45 45 S 31 50 29.75 1007 10 16.0934 0 0
4:54 pm 16:54 Mostly Sunny 72 22.2 52 11.1 50 50 S 24 39 29.77 1008 10 16.0934 0 0
5:54 pm 17:54 Clear 69 20.6 52 11.1 55 55 S 15 24 29.79 1009 10 16.0934 0 0
6:54 pm 18:54 Clear 68 20 51 10.6 55 55 S 20 31 29.79 1009 10 16.0934 0 0
7:54 pm 19:54 Clear 67 19.4 52 11.1 59 59 S 26 43 29.8 1009 10 16.0934 0 0
8:54 pm 20:54 Clear 67 19.4 53 11.7 61 61 S 26 43 29.8 1009 10 16.0934 0 0
9:54 pm 21:54 Clear 66 18.9 54 12.2 65 65 S 22 35 29.82 1010 10 16.0934 0 0
10:54 pm 22:54 Clear 65 18.3 54 12.2 68 68 S 22 35 29.81 1009 10 16.0934 0 0
11:54 pm 23:54 Clear 65 18.3 55 12.8 70 70 S 22 35 29.8 1009 10 16.0934 0 0

Powered by AerisWeather